Time;durP1;ratioP1;P1;durP2;ratioP2;P2;SDS_P1;SDS_P2;PMS_P1;PMS_P2;Temp;Humidity;BMP_temperature;BMP_pressure;BME280_temperature;BME280_humidity;BME280_pressure;Samples;Min_cycle;Max_cycle;Signal;HPM_P1;HPM_P2
2022/01/10 00:00:47;;;;;;;10.50;3.35;;;3.70;88.50;;;;;;5096541;27;20039;-70
2022/01/10 00:03:13;;;;;;;17.30;4.32;;;3.70;88.50;;;;;;5113588;27;20035;-70
2022/01/10 00:05:39;;;;;;;14.65;3.28;;;3.70;88.50;;;;;;5131563;27;20040;-70
2022/01/10 00:08:05;;;;;;;17.25;4.45;;;3.70;88.40;;;;;;5132497;27;20066;-70
2022/01/10 00:10:32;;;;;;;14.80;3.22;;;3.80;88.40;;;;;;5131162;27;20055;-70
2022/01/10 00:12:58;;;;;;;16.88;4.05;;;3.70;88.20;;;;;;5132197;27;20049;-70
2022/01/10 00:15:24;;;;;;;13.73;3.40;;;3.70;88.20;;;;;;5113071;27;20075;-70
2022/01/10 00:17:49;;;;;;;15.32;3.53;;;3.70;87.90;;;;;;5107791;27;20046;-70
2022/01/10 00:20:17;;;;;;;19.33;5.70;;;3.60;87.90;;;;;;5113164;27;20411;-70
2022/01/10 00:22:45;;;;;;;14.40;3.53;;;3.60;87.80;;;;;;5113556;27;20035;-70
2022/01/10 00:25:13;;;;;;;19.20;3.90;;;3.60;87.90;;;;;;5125217;27;20123;-70
2022/01/10 00:27:39;;;;;;;21.98;4.32;;;3.60;87.90;;;;;;5131349;27;20047;-70
2022/01/10 00:30:05;;;;;;;15.43;3.63;;;3.60;88.00;;;;;;5096100;27;20138;-70
2022/01/10 00:32:31;;;;;;;21.48;4.93;;;3.60;88.00;;;;;;5131520;27;20035;-70
2022/01/10 00:34:56;;;;;;;20.95;5.15;;;3.50;88.00;;;;;;5112834;27;20095;-70
2022/01/10 00:37:22;;;;;;;17.05;3.85;;;3.50;88.00;;;;;;5112308;27;20047;-70
2022/01/10 00:39:49;;;;;;;20.08;4.10;;;3.50;88.00;;;;;;5112721;27;20116;-70
2022/01/10 00:42:15;;;;;;;15.05;3.80;;;3.50;88.00;;;;;;5131495;27;20055;-70
2022/01/10 00:44:49;;;;;;;15.50;4.95;;;3.50;88.00;;;;;;5131638;27;20455;-70
2022/01/10 00:47:15;;;;;;;15.30;3.80;;;3.60;88.00;;;;;;5128083;27;20075;-70
2022/01/10 00:49:41;;;;;;;16.00;3.85;;;3.50;87.70;;;;;;5112905;27;20051;-70
2022/01/10 00:52:06;;;;;;;11.02;3.22;;;3.40;87.70;;;;;;5130315;27;20043;-70
2022/01/10 00:54:32;;;;;;;18.15;4.18;;;3.40;87.40;;;;;;5112440;27;20050;-70
2022/01/10 00:56:57;;;;;;;17.13;3.97;;;3.30;87.70;;;;;;5119031;27;20103;-70
2022/01/10 00:59:23;;;;;;;14.80;3.35;;;3.30;87.80;;;;;;5132024;27;20095;-70
2022/01/10 01:01:49;;;;;;;11.95;4.53;;;3.30;87.90;;;;;;5091028;27;20043;-70
2022/01/10 01:04:15;;;;;;;21.23;4.40;;;3.30;88.00;;;;;;5131528;27;20114;-70
2022/01/10 01:06:41;;;;;;;15.70;3.85;;;3.30;88.10;;;;;;5112389;27;20079;-70
2022/01/10 01:09:09;;;;;;;17.23;5.57;;;3.30;88.20;;;;;;5131950;27;20042;-70
2022/01/10 01:14:36;;;;;;;11.30;3.35;;;3.40;88.10;;;;;;5119915;27;20184;-70
2022/01/10 01:25:02;;;;;;;15.07;3.72;;;3.40;87.90;;;;;;5130438;27;20070;-70
2022/01/10 01:27:27;;;;;;;8.25;3.28;;;3.40;87.90;;;;;;5130427;27;20046;-70
2022/01/10 01:29:53;;;;;;;14.23;4.30;;;3.40;87.70;;;;;;5130174;27;20495;-70
2022/01/10 01:32:18;;;;;;;10.02;3.78;;;3.40;87.60;;;;;;5131264;27;20114;-70
2022/01/10 01:34:44;;;;;;;11.13;3.50;;;3.30;87.50;;;;;;5111603;27;20043;-70
2022/01/10 01:37:11;;;;;;;17.45;4.07;;;3.40;87.60;;;;;;5130397;27;20039;-70
2022/01/10 01:39:37;;;;;;;20.55;5.55;;;3.40;87.60;;;;;;5130125;27;20051;-70
2022/01/10 01:42:16;;;;;;;24.67;5.85;;;3.40;87.50;;;;;;5129994;27;20041;-70
2022/01/10 01:44:42;;;;;;;15.25;4.18;;;3.30;87.50;;;;;;5130733;27;20081;-70
2022/01/10 01:47:08;;;;;;;15.68;3.80;;;3.30;87.50;;;;;;5111494;27;20071;-70
2022/01/10 01:49:33;;;;;;;15.05;5.07;;;3.30;87.50;;;;;;5130147;27;20031;-70
2022/01/10 01:51:59;;;;;;;12.75;3.53;;;3.30;87.40;;;;;;5112427;27;20041;-70
2022/01/10 01:54:25;;;;;;;12.43;4.10;;;3.30;87.30;;;;;;5129802;27;20054;-70
2022/01/10 01:56:52;;;;;;;14.38;3.95;;;3.30;87.30;;;;;;5126552;27;20070;-70
2022/01/10 01:59:17;;;;;;;10.07;3.58;;;3.20;87.30;;;;;;5122944;27;20057;-70
2022/01/10 02:01:43;;;;;;;16.40;4.38;;;3.30;87.20;;;;;;5130090;27;20118;-70
2022/01/10 02:04:09;;;;;;;19.40;6.20;;;3.20;87.30;;;;;;5129878;27;20046;-70
2022/01/10 02:06:35;;;;;;;16.83;4.57;;;3.20;87.30;;;;;;5120143;27;20067;-70
2022/01/10 02:09:00;;;;;;;14.88;4.50;;;3.20;87.40;;;;;;5127814;27;20099;-70
2022/01/10 02:11:26;;;;;;;12.50;4.10;;;3.20;87.50;;;;;;5111326;27;20043;-70
2022/01/10 02:13:52;;;;;;;15.10;4.55;;;3.20;87.70;;;;;;5094266;27;20078;-70
2022/01/10 02:16:22;;;;;;;15.80;4.18;;;3.20;87.70;;;;;;5129816;27;20042;-70
2022/01/10 02:18:49;;;;;;;18.83;5.10;;;3.20;87.70;;;;;;5130404;27;20043;-70
2022/01/10 02:21:15;;;;;;;16.70;4.25;;;3.20;87.80;;;;;;5128623;27;20047;-70
2022/01/10 02:23:42;;;;;;;17.80;4.90;;;3.20;87.90;;;;;;5129719;27;20452;-70
2022/01/10 02:26:08;;;;;;;20.60;4.95;;;3.20;87.90;;;;;;5128974;27;20096;-70
2022/01/10 02:28:33;;;;;;;16.00;5.07;;;3.20;87.90;;;;;;5128831;27;20043;-70
2022/01/10 02:30:59;;;;;;;20.10;5.40;;;3.20;87.90;;;;;;5129756;27;20491;-70
2022/01/10 02:33:30;;;;;;;20.05;6.97;;;3.20;87.90;;;;;;5129443;27;20043;-70
2022/01/10 02:38:33;;;;;;;13.57;6.00;;;3.10;88.20;;;;;;5129621;27;20051;-70
2022/01/10 02:40:59;;;;;;;14.93;5.78;;;3.10;88.30;;;;;;5111308;27;20051;-70
2022/01/10 02:43:26;;;;;;;20.60;7.13;;;3.10;88.30;;;;;;5110739;27;20411;-70
2022/01/10 02:45:51;;;;;;;22.13;6.72;;;3.10;88.70;;;;;;5129181;27;20597;-70
2022/01/10 02:48:17;;;;;;;16.55;6.35;;;3.10;88.70;;;;;;5129211;27;20039;-70
2022/01/10 02:50:43;;;;;;;17.58;7.90;;;3.10;88.70;;;;;;5129364;27;20031;-70
2022/01/10 02:53:09;;;;;;;19.55;6.00;;;3.10;88.60;;;;;;5110416;28;20128;-70
2022/01/10 02:55:34;;;;;;;20.23;6.70;;;3.10;88.50;;;;;;5127935;28;20416;-70
2022/01/10 02:58:00;;;;;;;18.17;6.10;;;3.10;88.50;;;;;;5126245;28;20035;-70
2022/01/10 03:00:26;;;;;;;14.30;6.35;;;3.10;88.50;;;;;;5128589;28;20093;-70
2022/01/10 03:02:54;;;;;;;16.45;7.28;;;3.10;88.40;;;;;;5125559;28;20100;-70
2022/01/10 03:05:21;;;;;;;21.20;7.65;;;3.10;88.40;;;;;;5128835;28;20504;-70
2022/01/10 03:07:49;;;;;;;15.70;6.70;;;3.10;88.40;;;;;;5110431;28;20515;-70
2022/01/10 03:10:14;;;;;;;14.40;6.97;;;3.10;88.40;;;;;;5127184;28;20068;-70
2022/01/10 03:12:40;;;;;;;17.23;6.70;;;3.20;88.40;;;;;;5106417;28;20039;-70
2022/01/10 03:15:08;;;;;;;22.23;7.00;;;3.10;88.30;;;;;;5123857;28;20039;-70
2022/01/10 03:17:35;;;;;;;16.05;7.43;;;3.10;88.30;;;;;;5128355;28;20555;-70
2022/01/10 03:20:01;;;;;;;14.52;7.35;;;3.10;88.20;;;;;;5128777;28;20100;-70
2022/01/10 03:22:26;;;;;;;17.17;8.02;;;3.10;88.20;;;;;;5128981;28;20456;-70
2022/01/10 03:24:55;;;;;;;19.83;7.82;;;3.10;88.20;;;;;;5128622;28;20036;-70
2022/01/10 03:27:21;;;;;;;19.08;8.20;;;3.10;88.30;;;;;;5127433;28;20159;-70
2022/01/10 03:29:46;;;;;;;24.58;8.88;;;3.10;88.20;;;;;;5127514;28;20571;-70
2022/01/10 03:32:12;;;;;;;23.15;9.38;;;3.10;88.20;;;;;;5129332;28;20047;-70
2022/01/10 03:34:39;;;;;;;17.23;8.60;;;3.10;88.30;;;;;;5121938;28;20039;-70
2022/01/10 03:37:05;;;;;;;14.05;8.07;;;3.10;88.30;;;;;;5083831;28;20051;-70
2022/01/10 03:39:32;;;;;;;19.80;8.43;;;3.00;88.40;;;;;;5128657;28;20046;-70
2022/01/10 03:41:57;;;;;;;15.13;8.85;;;3.00;88.40;;;;;;5128297;27;20070;-70
2022/01/10 03:44:23;;;;;;;17.88;9.60;;;3.00;88.40;;;;;;5128074;28;20503;-70
2022/01/10 03:46:49;;;;;;;17.33;8.18;;;3.00;88.40;;;;;;5128183;28;20043;-70
2022/01/10 03:49:15;;;;;;;15.95;8.32;;;2.90;88.40;;;;;;5128252;28;20039;-70
2022/01/10 03:51:41;;;;;;;17.73;7.88;;;2.90;88.40;;;;;;5128309;28;20043;-70
2022/01/10 03:54:07;;;;;;;14.73;8.43;;;2.90;88.40;;;;;;5128666;28;20115;-70
2022/01/10 03:56:33;;;;;;;12.50;7.95;;;2.90;88.60;;;;;;5108629;28;20096;-70
2022/01/10 03:58:58;;;;;;;13.85;7.25;;;2.90;88.70;;;;;;5127598;28;20047;-70
2022/01/10 04:01:24;;;;;;;9.57;6.78;;;2.90;88.70;;;;;;5127717;28;20877;-70
2022/01/10 04:03:50;;;;;;;12.70;7.82;;;2.90;88.60;;;;;;5129780;27;20103;-70
2022/01/10 04:06:17;;;;;;;13.43;7.90;;;2.90;88.60;;;;;;5131618;27;20039;-70
2022/01/10 04:08:43;;;;;;;9.23;6.18;;;2.90;88.60;;;;;;5113277;27;20465;-70
2022/01/10 04:11:08;;;;;;;13.10;7.55;;;2.90;88.60;;;;;;5132256;27;20039;-70
2022/01/10 04:13:34;;;;;;;13.55;7.57;;;2.90;88.60;;;;;;5131537;27;20124;-70
2022/01/10 04:16:00;;;;;;;9.63;6.93;;;2.90;88.50;;;;;;5112746;27;20054;-70
2022/01/10 04:18:25;;;;;;;16.08;8.13;;;2.90;88.40;;;;;;5096935;27;20126;-70
2022/01/10 04:20:51;;;;;;;10.45;6.97;;;2.90;88.30;;;;;;5114356;27;20043;-70
2022/01/10 04:23:20;;;;;;;14.52;8.02;;;2.90;88.30;;;;;;5112117;27;20104;-70
2022/01/10 04:25:46;;;;;;;13.55;7.18;;;2.80;88.10;;;;;;5113117;27;20552;-70
2022/01/10 04:28:11;;;;;;;19.42;6.65;;;2.80;88.40;;;;;;5132277;27;20510;-70
2022/01/10 04:30:38;;;;;;;13.32;7.55;;;2.70;88.30;;;;;;5132755;27;20043;-70
2022/01/10 04:33:04;;;;;;;12.55;7.03;;;2.70;88.40;;;;;;5131706;27;20051;-70
2022/01/10 04:35:30;;;;;;;11.65;7.00;;;2.70;88.60;;;;;;5130620;27;20054;-70
2022/01/10 04:37:57;;;;;;;9.40;6.63;;;2.70;88.60;;;;;;5132616;27;20476;-70
2022/01/10 04:40:24;;;;;;;15.10;8.57;;;2.70;88.60;;;;;;5131879;27;20449;-70
2022/01/10 04:42:50;;;;;;;17.60;9.07;;;2.70;88.70;;;;;;5131811;27;20047;-70
2022/01/10 04:45:16;;;;;;;19.75;8.93;;;2.70;88.80;;;;;;5112015;27;20555;-70
2022/01/10 04:47:42;;;;;;;13.10;9.35;;;2.70;88.90;;;;;;5131699;27;20050;-70
2022/01/10 04:51:11;;;;;;;10.25;8.07;;;2.70;89.00;;;;;;5131630;27;20047;-70
2022/01/10 04:52:54;;;;;;;12.23;7.75;;;2.80;88.90;;;;;;5098296;27;20074;-70
2022/01/10 04:55:20;;;;;;;11.07;7.28;;;2.70;88.70;;;;;;5131151;27;20085;-70
2022/01/10 04:57:46;;;;;;;10.15;7.18;;;2.70;88.60;;;;;;5131090;27;20496;-71
2022/01/10 05:00:14;;;;;;;11.15;8.13;;;2.70;88.60;;;;;;5131400;27;20420;-70
2022/01/10 05:02:42;;;;;;;15.93;7.65;;;2.70;88.60;;;;;;5131063;27;20055;-70
2022/01/10 05:05:08;;;;;;;14.82;6.88;;;2.70;88.50;;;;;;5130905;27;20092;-70
2022/01/10 05:07:34;;;;;;;14.38;8.02;;;2.60;88.60;;;;;;5131564;27;20051;-70
2022/01/10 05:10:00;;;;;;;11.82;7.80;;;2.70;88.60;;;;;;5131210;27;20418;-70
2022/01/10 05:12:27;;;;;;;7.55;6.53;;;2.70;88.60;;;;;;5131181;27;20035;-70
2022/01/10 05:14:53;;;;;;;9.27;7.43;;;2.60;88.50;;;;;;5092633;28;20453;-70
2022/01/10 05:17:21;;;;;;;10.00;6.93;;;2.70;88.40;;;;;;5130982;27;20131;-70
2022/01/10 05:19:47;;;;;;;7.53;5.93;;;2.70;88.40;;;;;;5130353;27;20050;-70
2022/01/10 05:22:13;;;;;;;5.40;4.78;;;2.70;88.30;;;;;;5109507;27;20590;-69
2022/01/10 05:24:38;;;;;;;21.52;8.18;;;2.70;88.20;;;;;;5121534;27;20081;-69
2022/01/10 05:27:04;;;;;;;12.38;8.35;;;2.60;87.80;;;;;;5128311;27;20067;-69
2022/01/10 05:29:30;;;;;;;22.05;7.78;;;2.50;87.50;;;;;;5130754;27;20042;-69
2022/01/10 05:31:56;;;;;;;16.23;6.72;;;2.40;87.50;;;;;;5129656;27;20088;-69
2022/01/10 05:34:22;;;;;;;9.43;5.82;;;2.30;87.50;;;;;;5129269;27;20035;-69
2022/01/10 05:36:48;;;;;;;9.20;7.50;;;2.30;87.60;;;;;;5124630;27;21644;-70
2022/01/10 05:39:13;;;;;;;16.70;9.45;;;2.30;87.60;;;;;;5128523;27;20042;-70
2022/01/10 05:41:39;;;;;;;13.18;7.53;;;2.30;87.40;;;;;;5103709;27;20070;-67
2022/01/10 05:44:05;;;;;;;15.25;7.75;;;2.20;87.20;;;;;;5127144;27;20055;-68
2022/01/10 05:46:34;;;;;;;14.90;8.10;;;2.20;87.30;;;;;;5127553;27;20511;-69
2022/01/10 05:49:01;;;;;;;35.78;7.68;;;2.20;87.30;;;;;;5111893;27;20515;-69
2022/01/10 05:51:29;;;;;;;9.20;6.30;;;2.20;87.30;;;;;;5088486;27;20051;-66
2022/01/10 05:53:55;;;;;;;12.73;9.07;;;2.30;88.30;;;;;;5129388;27;20560;-66
2022/01/10 05:56:21;;;;;;;12.48;8.50;;;3.10;91.50;;;;;;5111612;27;20047;-68
2022/01/10 05:58:47;;;;;;;33.15;7.55;;;3.70;90.00;;;;;;5130236;27;20096;-68
2022/01/10 06:01:13;;;;;;;12.93;6.75;;;3.70;88.50;;;;;;5129359;27;20122;-68
2022/01/10 06:03:38;;;;;;;8.13;6.85;;;3.50;86.80;;;;;;5128876;27;21106;-68
2022/01/10 06:06:04;;;;;;;14.13;6.78;;;3.20;85.90;;;;;;5130423;27;20092;-68
2022/01/10 06:08:30;;;;;;;15.93;6.25;;;3.00;85.80;;;;;;5128957;27;20554;-67
2022/01/10 06:10:55;;;;;;;10.00;6.43;;;2.80;85.60;;;;;;5130118;27;20134;-68
2022/01/10 06:13:21;;;;;;;8.82;6.85;;;2.60;85.30;;;;;;5129799;27;20107;-68
2022/01/10 06:15:46;;;;;;;8.43;6.47;;;2.40;85.70;;;;;;5128669;27;20039;-68
2022/01/10 06:18:12;;;;;;;8.93;6.82;;;2.40;85.90;;;;;;5129131;27;20121;-68
2022/01/10 06:20:38;;;;;;;9.07;6.07;;;2.30;85.90;;;;;;5110620;28;20683;-68
2022/01/10 06:23:03;;;;;;;12.45;6.22;;;2.20;85.90;;;;;;5126246;27;20589;-68
2022/01/10 06:25:29;;;;;;;8.88;6.95;;;2.10;86.00;;;;;;5129636;27;20043;-68
2022/01/10 06:27:56;;;;;;;9.25;5.70;;;2.10;86.20;;;;;;5129730;27;20039;-68
2022/01/10 06:30:21;;;;;;;9.80;6.72;;;2.10;86.40;;;;;;5094261;27;20047;-68
2022/01/10 06:32:47;;;;;;;14.80;6.78;;;2.10;86.50;;;;;;5129535;27;20112;-67
2022/01/10 06:35:13;;;;;;;12.05;5.35;;;2.00;86.50;;;;;;5128914;27;20031;-67
2022/01/10 06:37:39;;;;;;;9.77;5.95;;;2.00;86.50;;;;;;5128637;27;20043;-68
2022/01/10 06:40:06;;;;;;;9.57;5.55;;;2.00;86.60;;;;;;5127801;27;20153;-68
2022/01/10 06:42:32;;;;;;;11.48;6.57;;;2.00;86.70;;;;;;5110605;27;20569;-67
2022/01/10 06:44:58;;;;;;;7.78;6.18;;;2.00;86.70;;;;;;5129383;27;20087;-68
2022/01/10 06:47:23;;;;;;;7.53;5.95;;;1.90;86.70;;;;;;5093809;27;20043;-68
2022/01/10 06:49:49;;;;;;;7.10;6.05;;;1.90;86.70;;;;;;5128890;27;20031;-68
2022/01/10 06:52:16;;;;;;;7.28;5.28;;;1.90;86.60;;;;;;5128412;27;20049;-67
2022/01/10 06:54:42;;;;;;;6.50;5.53;;;1.90;86.50;;;;;;5128471;27;20463;-68
2022/01/10 06:57:08;;;;;;;6.90;5.60;;;1.90;86.50;;;;;;5129781;28;20053;-68
2022/01/10 06:59:33;;;;;;;8.70;6.18;;;1.90;86.50;;;;;;5128367;28;20700;-68
2022/01/10 07:01:59;;;;;;;7.97;5.32;;;1.80;86.50;;;;;;5110889;28;20555;-68
2022/01/10 07:04:26;;;;;;;6.35;5.38;;;1.80;86.60;;;;;;5107844;28;20047;-67
2022/01/10 07:06:53;;;;;;;6.55;5.00;;;1.80;86.60;;;;;;5126131;28;20096;-68
2022/01/10 07:09:19;;;;;;;12.75;5.80;;;1.90;86.70;;;;;;5122868;28;20122;-68
2022/01/10 07:11:44;;;;;;;7.53;5.85;;;1.90;86.60;;;;;;5127985;28;20038;-65
2022/01/10 07:14:12;;;;;;;15.88;8.38;;;1.90;86.70;;;;;;5128414;27;20047;-67
2022/01/10 07:16:38;;;;;;;7.85;6.20;;;3.60;92.80;;;;;;5127372;28;20051;-66
2022/01/10 07:19:03;;;;;;;7.80;6.22;;;4.10;90.40;;;;;;5125913;27;20046;-69
2022/01/10 07:21:30;;;;;;;12.75;6.53;;;4.00;87.50;;;;;;5123625;28;20062;-69
2022/01/10 07:23:55;;;;;;;6.95;6.25;;;3.80;86.10;;;;;;5129296;28;20042;-69
2022/01/10 07:26:22;;;;;;;11.48;6.65;;;3.50;84.90;;;;;;5127994;28;20039;-68
2022/01/10 07:28:48;;;;;;;10.70;6.30;;;3.30;84.40;;;;;;5126881;28;20043;-68
2022/01/10 07:31:14;;;;;;;11.93;6.97;;;3.10;84.50;;;;;;5125118;27;20054;-69
2022/01/10 07:33:39;;;;;;;14.05;8.18;;;3.00;84.30;;;;;;5128600;28;20199;-68
2022/01/10 07:36:05;;;;;;;13.60;7.75;;;2.80;84.20;;;;;;5110327;28;20496;-69
2022/01/10 07:38:35;;;;;;;12.07;7.88;;;2.70;84.20;;;;;;5128702;27;20047;-68
2022/01/10 07:41:05;;;;;;;16.23;8.23;;;2.60;84.50;;;;;;5133071;27;20051;-67
2022/01/10 07:43:31;;;;;;;14.43;7.80;;;2.50;84.50;;;;;;5119181;27;20122;-67
2022/01/10 07:45:57;;;;;;;17.13;8.10;;;2.40;84.60;;;;;;5117054;27;20172;-67
2022/01/10 07:48:25;;;;;;;15.05;8.55;;;2.40;84.70;;;;;;5090138;27;20134;-67
2022/01/10 07:50:51;;;;;;;12.35;7.90;;;2.30;84.70;;;;;;5133030;27;20044;-67
2022/01/10 07:53:17;;;;;;;15.43;8.15;;;2.20;84.60;;;;;;5131634;27;20031;-67
2022/01/10 07:55:42;;;;;;;11.60;7.10;;;2.20;84.60;;;;;;5110927;27;20054;-67
2022/01/10 07:58:08;;;;;;;12.48;7.82;;;2.10;84.50;;;;;;5127767;27;20161;-67
2022/01/10 08:00:34;;;;;;;12.30;6.97;;;2.10;84.70;;;;;;5132929;27;20062;-67
2022/01/10 08:02:59;;;;;;;16.30;8.27;;;2.10;84.90;;;;;;5093687;27;20036;-67
2022/01/10 08:05:25;;;;;;;12.20;7.07;;;2.10;85.10;;;;;;5132844;27;20099;-67
2022/01/10 08:07:50;;;;;;;11.82;7.03;;;2.10;85.20;;;;;;5109238;28;20059;-67
2022/01/10 08:10:16;;;;;;;13.93;6.63;;;2.10;84.90;;;;;;5127473;27;20072;-67
2022/01/10 08:12:43;;;;;;;30.30;18.13;;;2.10;85.00;;;;;;5131416;27;20122;-67
2022/01/10 08:15:09;;;;;;;11.60;7.45;;;2.20;86.10;;;;;;5108841;27;20138;-69
2022/01/10 08:17:35;;;;;;;11.48;6.72;;;2.40;85.90;;;;;;5111911;27;20122;-68
2022/01/10 08:20:01;;;;;;;11.98;6.32;;;2.40;85.30;;;;;;5096049;27;20051;-68
2022/01/10 08:22:27;;;;;;;10.35;6.05;;;2.30;85.10;;;;;;5132726;27;20138;-68
2022/01/10 08:24:53;;;;;;;7.75;6.00;;;2.30;84.80;;;;;;5132996;27;20118;-68
2022/01/10 08:27:19;;;;;;;7.72;4.95;;;2.20;84.60;;;;;;5132361;27;20043;-68
2022/01/10 08:29:45;;;;;;;6.03;5.28;;;2.20;84.70;;;;;;5131839;27;20457;-68
2022/01/10 08:32:11;;;;;;;8.55;4.88;;;2.10;84.70;;;;;;5132484;27;20135;-68
2022/01/10 08:34:37;;;;;;;8.20;6.45;;;2.10;84.80;;;;;;5132600;27;20553;-68
2022/01/10 08:37:03;;;;;;;8.02;6.22;;;2.00;84.90;;;;;;5113422;27;20040;-68
2022/01/10 08:39:28;;;;;;;8.32;6.35;;;2.00;85.00;;;;;;5132724;27;20042;-68
2022/01/10 08:41:54;;;;;;;11.00;7.32;;;2.00;85.00;;;;;;5132733;27;20039;-68
2022/01/10 08:44:20;;;;;;;13.13;7.20;;;1.90;85.10;;;;;;5131904;27;20043;-68
2022/01/10 08:46:46;;;;;;;17.95;7.75;;;2.00;85.30;;;;;;5118073;27;20039;-68
2022/01/10 08:49:13;;;;;;;10.75;8.35;;;2.00;85.50;;;;;;5120685;27;20036;-66
2022/01/10 08:51:40;;;;;;;14.15;9.40;;;2.00;86.00;;;;;;5126612;27;20036;-66
2022/01/10 08:54:06;;;;;;;15.00;11.07;;;2.10;86.10;;;;;;5122675;27;20042;-67
2022/01/10 08:56:32;;;;;;;12.88;8.68;;;2.10;86.10;;;;;;5111361;28;20043;-66
2022/01/10 08:58:59;;;;;;;13.20;8.95;;;2.20;86.00;;;;;;5128750;27;20046;-66
2022/01/10 09:01:26;;;;;;;20.33;13.90;;;2.20;86.00;;;;;;5132123;27;20046;-66
2022/01/10 09:03:52;;;;;;;28.42;18.65;;;2.30;86.00;;;;;;5110338;27;20502;-66
2022/01/10 09:06:18;;;;;;;30.73;18.48;;;2.30;85.90;;;;;;5131419;27;20118;-66
2022/01/10 09:08:46;;;;;;;19.80;13.18;;;2.30;85.90;;;;;;5131728;27;20051;-66
2022/01/10 09:11:12;;;;;;;14.20;10.48;;;2.30;86.00;;;;;;5131593;27;20524;-66
2022/01/10 09:13:38;;;;;;;13.25;9.48;;;2.40;86.00;;;;;;5130479;27;20035;-66
2022/01/10 09:16:06;;;;;;;13.13;9.38;;;2.40;86.10;;;;;;5111272;28;20492;-66
2022/01/10 09:18:33;;;;;;;15.20;10.18;;;2.40;86.10;;;;;;5128449;27;20047;-66
2022/01/10 09:20:58;;;;;;;15.93;10.45;;;2.50;86.20;;;;;;5112897;27;20046;-66
2022/01/10 09:23:25;;;;;;;14.85;10.20;;;2.60;86.10;;;;;;5130783;27;20038;-66
2022/01/10 09:25:51;;;;;;;16.17;10.13;;;2.60;86.00;;;;;;5131258;27;20114;-66
2022/01/10 09:28:18;;;;;;;17.42;10.18;;;2.60;86.00;;;;;;5129820;27;20436;-66
2022/01/10 09:30:44;;;;;;;18.98;10.02;;;2.60;86.10;;;;;;5125798;27;20387;-66
2022/01/10 09:33:10;;;;;;;18.63;12.10;;;2.60;86.00;;;;;;5123164;27;20039;-66
2022/01/10 09:35:36;;;;;;;20.20;9.60;;;2.60;86.10;;;;;;5131150;27;20073;-66
2022/01/10 09:38:02;;;;;;;22.23;9.82;;;2.70;86.10;;;;;;5130458;27;20445;-66
2022/01/10 09:40:28;;;;;;;18.85;9.63;;;2.70;86.10;;;;;;5110864;27;20119;-66
2022/01/10 09:42:54;;;;;;;16.83;10.00;;;2.70;86.10;;;;;;5095656;27;20168;-66
2022/01/10 09:45:19;;;;;;;21.25;10.40;;;2.70;86.10;;;;;;5131028;27;20078;-66
2022/01/10 09:47:45;;;;;;;20.30;11.07;;;2.70;86.10;;;;;;5124794;27;20560;-66
2022/01/10 09:50:15;;;;;;;17.05;10.60;;;2.70;86.10;;;;;;5129397;27;20047;-66
2022/01/10 09:52:43;;;;;;;17.50;10.25;;;2.80;86.20;;;;;;5113462;27;20035;-66
2022/01/10 09:55:09;;;;;;;19.48;10.20;;;2.80;86.30;;;;;;5131138;27;20054;-66
2022/01/10 09:57:35;;;;;;;23.20;9.68;;;2.90;86.30;;;;;;5128103;27;20035;-66
2022/01/10 10:00:00;;;;;;;15.65;10.07;;;2.90;86.30;;;;;;5090633;27;20512;-66
2022/01/10 10:02:31;;;;;;;17.33;11.18;;;2.90;86.30;;;;;;5129802;27;20046;-66
2022/01/10 10:04:57;;;;;;;22.88;12.35;;;3.00;86.30;;;;;;5130664;27;20039;-66
2022/01/10 10:07:24;;;;;;;21.02;12.13;;;3.00;86.30;;;;;;5130563;27;20181;-66
2022/01/10 10:09:49;;;;;;;21.02;12.13;;;3.00;86.40;;;;;;5130468;27;20039;-65
2022/01/10 10:12:15;;;;;;;20.20;10.52;;;3.00;86.50;;;;;;5130170;27;20108;-65
2022/01/10 10:14:45;;;;;;;18.98;11.13;;;3.10;86.50;;;;;;5129406;27;20112;-66
2022/01/10 10:17:17;;;;;;;18.48;10.27;;;3.10;86.50;;;;;;5095272;27;20039;-66
2022/01/10 10:19:42;;;;;;;19.65;10.80;;;3.20;86.50;;;;;;5114044;27;20051;-66
2022/01/10 10:22:08;;;;;;;19.50;11.15;;;3.20;86.50;;;;;;5110168;28;20047;-65
2022/01/10 10:24:34;;;;;;;22.38;11.73;;;3.30;86.60;;;;;;5105870;27;20054;-65
2022/01/10 10:27:00;;;;;;;19.63;11.52;;;3.30;86.60;;;;;;5112366;27;20421;-65
2022/01/10 10:29:25;;;;;;;20.17;10.27;;;3.40;86.60;;;;;;5124447;27;20046;-64
2022/01/10 10:31:53;;;;;;;18.55;12.63;;;3.40;86.70;;;;;;5125624;27;20043;-66
2022/01/10 10:34:23;;;;;;;21.15;11.10;;;3.50;86.80;;;;;;5127210;27;20043;-66
2022/01/10 10:37:21;;;;;;;22.33;12.38;;;3.60;86.90;;;;;;5110447;28;20047;-66
2022/01/10 10:39:47;;;;;;;28.15;16.20;;;3.60;86.70;;;;;;5070630;27;20514;-66
2022/01/10 10:42:16;;;;;;;22.67;13.05;;;3.60;87.10;;;;;;5124929;27;20387;-66
2022/01/10 10:44:43;;;;;;;24.13;13.13;;;3.60;87.10;;;;;;5130239;27;20097;-66
2022/01/10 10:47:11;;;;;;;19.95;12.35;;;3.70;87.10;;;;;;5128015;27;20034;-66
2022/01/10 10:49:40;;;;;;;18.25;12.02;;;3.70;87.10;;;;;;5118460;27;20048;-66
2022/01/10 10:52:10;;;;;;;21.10;13.00;;;3.80;87.20;;;;;;5120156;27;20095;-66
2022/01/10 10:54:37;;;;;;;23.38;12.10;;;3.90;87.30;;;;;;5128230;27;20046;-66
2022/01/10 10:57:05;;;;;;;24.88;12.40;;;3.90;87.40;;;;;;5129694;27;20122;-69
2022/01/10 10:59:36;;;;;;;18.60;11.43;;;4.00;87.40;;;;;;5129729;28;20130;-69
2022/01/10 11:02:03;;;;;;;21.90;12.13;;;4.10;87.40;;;;;;5111935;28;20091;-69
2022/01/10 11:04:31;;;;;;;18.67;11.20;;;4.10;87.40;;;;;;5130264;28;20399;-69
2022/01/10 11:06:58;;;;;;;26.25;13.65;;;4.20;87.40;;;;;;5108388;28;20116;-69
2022/01/10 11:09:24;;;;;;;23.30;11.60;;;4.20;87.30;;;;;;5096984;28;20054;-69
2022/01/10 11:11:50;;;;;;;19.60;11.82;;;4.20;87.40;;;;;;5089399;28;20036;-69
2022/01/10 11:14:17;;;;;;;24.85;12.80;;;4.30;87.40;;;;;;5091973;28;20032;-69
2022/01/10 11:16:46;;;;;;;19.05;13.38;;;4.30;87.40;;;;;;5096324;28;20035;-69
2022/01/10 11:19:13;;;;;;;26.08;12.40;;;4.30;87.40;;;;;;5113370;28;20039;-69
2022/01/10 11:21:40;;;;;;;30.25;14.98;;;4.40;87.50;;;;;;5113868;28;20051;-69
2022/01/10 11:24:06;;;;;;;27.48;13.38;;;4.40;87.50;;;;;;5095723;28;20127;-69
2022/01/10 11:26:43;;;;;;;30.33;15.02;;;4.50;87.50;;;;;;5111033;28;20126;-69
2022/01/10 11:29:09;;;;;;;26.55;12.57;;;4.60;87.60;;;;;;5092999;28;20567;-69
2022/01/10 11:31:39;;;;;;;23.52;12.75;;;4.50;87.60;;;;;;5092642;28;20115;-69
2022/01/10 11:34:05;;;;;;;21.98;12.93;;;4.60;87.60;;;;;;5092889;28;20123;-69
2022/01/10 11:36:31;;;;;;;19.65;13.23;;;4.60;87.70;;;;;;5094319;28;20135;-69
2022/01/10 11:39:00;;;;;;;23.40;12.32;;;4.60;87.70;;;;;;5112743;28;20050;-69
2022/01/10 11:41:27;;;;;;;28.60;13.18;;;4.70;87.70;;;;;;5112900;28;20058;-69
2022/01/10 11:44:03;;;;;;;31.38;13.38;;;4.70;87.70;;;;;;5094960;28;20048;-69
2022/01/10 11:46:45;;;;;;;26.50;13.43;;;4.70;87.70;;;;;;5104248;28;20083;-71
2022/01/10 11:49:14;;;;;;;24.85;14.13;;;4.90;88.10;;;;;;5107548;28;20126;-69
2022/01/10 11:51:43;;;;;;;23.70;14.30;;;5.00;87.90;;;;;;5103489;28;20374;-70
2022/01/10 11:54:18;;;;;;;27.67;13.15;;;5.00;87.70;;;;;;5111703;28;20051;-69
2022/01/10 11:56:56;;;;;;;25.52;13.32;;;5.10;87.60;;;;;;5112465;28;20079;-71
2022/01/10 11:59:37;;;;;;;23.70;12.25;;;5.10;87.50;;;;;;5110398;28;20040;-71
2022/01/10 12:02:10;;;;;;;21.27;12.40;;;5.10;87.50;;;;;;5112081;28;20055;-71
2022/01/10 12:04:39;;;;;;;27.48;13.93;;;5.10;87.50;;;;;;5107148;28;20047;-71
2022/01/10 12:07:07;;;;;;;28.20;13.02;;;5.10;87.50;;;;;;5114879;27;20062;-71
2022/01/10 12:09:34;;;;;;;24.02;12.85;;;5.10;87.50;;;;;;5130867;27;20494;-71
2022/01/10 12:12:02;;;;;;;21.42;12.20;;;5.20;87.50;;;;;;5112764;27;20561;-71
2022/01/10 12:14:28;;;;;;;27.48;13.35;;;5.20;87.60;;;;;;5128877;27;20085;-70
2022/01/10 12:16:55;;;;;;;24.05;12.52;;;5.30;87.50;;;;;;5129454;27;20049;-70
2022/01/10 12:19:21;;;;;;;27.88;12.68;;;5.30;87.60;;;;;;5111525;27;20080;-70
2022/01/10 12:21:47;;;;;;;24.35;12.48;;;5.30;87.60;;;;;;5110053;27;20047;-70
2022/01/10 12:24:14;;;;;;;27.13;12.60;;;5.40;87.60;;;;;;5107239;27;20054;-70
2022/01/10 12:26:41;;;;;;;25.08;11.88;;;5.40;87.70;;;;;;5129024;27;20496;-70
2022/01/10 12:29:09;;;;;;;26.13;12.70;;;5.50;87.70;;;;;;5128541;27;20055;-70
2022/01/10 12:31:36;;;;;;;22.40;12.60;;;5.60;87.70;;;;;;5127032;27;20039;-70
2022/01/10 12:34:03;;;;;;;25.63;14.90;;;5.60;87.70;;;;;;5110809;27;20125;-71
2022/01/10 12:36:31;;;;;;;25.73;13.77;;;5.60;87.70;;;;;;5123048;27;20082;-71
2022/01/10 12:39:01;;;;;;;22.88;12.55;;;5.70;87.60;;;;;;5128202;27;20047;-71
2022/01/10 12:41:27;;;;;;;30.83;15.40;;;5.60;87.60;;;;;;5095183;27;20039;-71
2022/01/10 12:43:53;;;;;;;26.25;14.10;;;5.70;87.60;;;;;;5130566;27;20038;-69
2022/01/10 12:46:20;;;;;;;22.65;14.55;;;5.70;87.70;;;;;;5127921;27;20526;-72
2022/01/10 12:48:48;;;;;;;24.30;14.32;;;5.70;87.70;;;;;;5130436;27;20031;-71
2022/01/10 12:51:15;;;;;;;22.95;14.25;;;5.80;87.70;;;;;;5127142;27;20514;-69
2022/01/10 12:53:47;;;;;;;22.83;13.30;;;6.00;87.80;;;;;;5130981;27;20499;-70
2022/01/10 12:56:15;;;;;;;21.85;13.13;;;6.00;87.60;;;;;;5130119;27;20050;-70